createdAt,value
2022-12-15T00:01:36.490Z,17.660994
2022-12-15T00:06:38.406Z,17.378788
2022-12-15T00:11:40.088Z,17.38408
2022-12-15T00:16:41.547Z,17.165352
2022-12-15T00:21:43.163Z,16.930816
2022-12-15T00:26:44.676Z,17.384786
2022-12-15T00:31:46.244Z,15.993214
2022-12-15T00:36:49.921Z,17.112214
2022-12-15T00:41:51.664Z,16.752254
2022-12-15T00:46:53.296Z,17.438996
2022-12-15T00:51:55.284Z,17.304386
2022-12-15T00:56:56.728Z,17.352924
2022-12-15T01:01:58.582Z,17.438738
2022-12-15T01:07:00.748Z,17.58552
2022-12-15T01:12:02.465Z,17.532382
2022-12-15T01:17:04.894Z,17.541826
2022-12-15T01:22:06.626Z,17.88477
2022-12-15T01:27:08.384Z,17.703806
2022-12-15T01:32:10.087Z,16.380624
2022-12-15T01:37:12.007Z,16.262162
2022-12-15T01:42:13.810Z,17.401924
2022-12-15T01:47:15.724Z,16.974252
2022-12-15T01:52:17.552Z,17.254328
2022-12-15T01:57:19.366Z,17.523996
2022-12-15T02:02:21.241Z,17.684646
2022-12-15T02:07:23.288Z,17.352924
2022-12-15T02:12:24.866Z,17.49611
2022-12-15T02:17:26.618Z,17.557092
2022-12-15T02:22:28.848Z,16.995258
2022-12-15T02:27:30.902Z,17.72606
2022-12-15T02:32:32.707Z,17.099512
2022-12-15T02:37:34.795Z,17.271018
2022-12-15T02:42:36.610Z,17.58879
2022-12-15T02:47:38.379Z,17.993258
2022-12-15T02:52:39.882Z,16.287768
2022-12-15T02:57:41.393Z,17.707782
2022-12-15T03:02:43.082Z,17.554188
2022-12-15T03:07:45.134Z,17.355312
2022-12-15T03:12:51.672Z,16.626206
2022-12-15T03:17:53.528Z,17.392398
2022-12-15T03:22:55.302Z,16.702196
2022-12-15T03:27:57.037Z,16.624064
2022-12-15T03:32:59.082Z,16.950492
2022-12-15T03:38:01.285Z,17.190076
2022-12-15T03:43:03.050Z,18.053358
2022-12-15T03:48:04.831Z,17.590296
2022-12-15T03:53:06.570Z,17.846802
2022-12-15T03:58:08.064Z,16.949528
2022-12-15T04:03:09.756Z,17.544472
2022-12-15T04:08:11.582Z,18.417226
2022-12-15T04:13:13.223Z,18.411744
2022-12-15T04:18:14.723Z,18.809848
2022-12-15T04:23:16.187Z,18.7577
2022-12-15T04:28:17.709Z,19.800644
2022-12-15T04:33:19.360Z,19.452408
2022-12-15T04:38:21.165Z,18.622194
2022-12-15T04:43:22.687Z,19.765336
2022-12-15T04:48:24.268Z,20.535002
2022-12-15T04:53:25.847Z,21.835606
2022-12-15T04:58:27.546Z,21.701688
2022-12-15T05:03:29.092Z,21.664602
2022-12-15T05:08:30.763Z,21.603064
2022-12-15T05:13:32.688Z,21.692026
2022-12-15T05:18:34.508Z,20.79315
2022-12-15T05:23:36.008Z,21.123732
2022-12-15T05:28:37.560Z,22.075082
2022-12-15T05:33:39.186Z,23.413994
2022-12-15T05:38:40.976Z,22.86452
2022-12-15T05:43:42.504Z,25.24281
2022-12-15T05:48:44.067Z,25.104006
2022-12-15T05:53:45.717Z,24.300238
2022-12-15T05:58:47.499Z,25.727014
2022-12-15T06:03:48.955Z,25.204408
2022-12-15T06:08:51.140Z,23.7666
2022-12-15T06:13:53.098Z,23.946438
2022-12-15T06:18:54.878Z,23.548116
2022-12-15T06:23:56.467Z,23.58166
2022-12-15T06:28:58.006Z,25.253842
2022-12-15T06:34:01.695Z,25.374136
2022-12-15T06:39:04.326Z,26.282446
2022-12-15T06:44:05.854Z,26.30721
2022-12-15T06:49:07.323Z,27.197228
2022-12-15T06:54:09.026Z,27.699792
2022-12-15T06:59:10.504Z,27.32504
2022-12-15T07:04:12.460Z,27.865288
2022-12-15T07:09:14.384Z,27.69891
2022-12-15T07:14:16.271Z,26.658962
2022-12-15T07:19:18.042Z,27.640398
2022-12-15T07:24:19.865Z,27.69157
2022-12-15T07:29:23.733Z,27.96022
2022-12-15T07:34:25.613Z,27.337632
2022-12-15T07:39:27.530Z,27.029534
2022-12-15T07:44:29.318Z,26.901572
2022-12-15T07:49:31.053Z,26.4273
2022-12-15T07:54:32.852Z,26.939282
2022-12-15T07:59:34.602Z,27.129976
2022-12-15T08:04:36.478Z,27.382656
2022-12-15T08:09:38.588Z,28.147142
2022-12-15T08:14:40.333Z,28.230772
2022-12-15T08:19:41.888Z,29.285972
2022-12-15T08:24:43.364Z,29.176736
2022-12-15T08:29:52.186Z,29.618794
2022-12-15T08:34:54.262Z,30.668216
2022-12-15T08:39:55.960Z,29.8247
2022-12-15T08:44:57.524Z,29.235412
2022-12-15T08:49:59.243Z,29.306042
2022-12-15T08:55:01.273Z,31.055574
2022-12-15T09:00:03.069Z,30.808146
2022-12-15T09:05:04.915Z,30.732442
2022-12-15T09:10:06.864Z,30.674404
2022-12-15T09:15:08.648Z,30.305148
2022-12-15T09:20:12.259Z,29.767084
2022-12-15T09:25:17.260Z,30.203402
2022-12-15T09:30:19.084Z,31.018706
2022-12-15T09:35:20.853Z,29.379752
2022-12-15T09:40:22.753Z,29.469366
2022-12-15T09:45:24.633Z,27.931968
2022-12-15T09:50:26.507Z,28.818282
2022-12-15T09:55:28.314Z,29.833968
2022-12-15T10:00:30.274Z,28.676154
2022-12-15T10:05:57.349Z,29.111616
2022-12-15T10:11:08.304Z,29.383932
2022-12-15T10:16:09.840Z,30.21974
2022-12-15T10:21:11.607Z,30.228126
2022-12-15T10:26:13.442Z,30.400066
2022-12-15T10:31:15.440Z,32.24893
2022-12-15T10:36:17.393Z,31.79185
2022-12-15T10:41:19.377Z,30.620316
2022-12-15T10:46:21.469Z,30.189276
2022-12-15T10:51:23.304Z,30.811444
2022-12-15T10:56:32.283Z,30.701748
2022-12-15T11:01:35.526Z,30.958674
2022-12-15T11:06:37.646Z,29.313954
2022-12-15T11:11:45.121Z,29.994646
2022-12-15T11:16:46.975Z,31.662734
2022-12-15T11:21:50.435Z,29.386822
2022-12-15T11:26:52.131Z,31.061084
2022-12-15T11:31:53.825Z,31.20917
2022-12-15T11:36:55.405Z,29.873456
2022-12-15T11:41:57.336Z,29.620736
2022-12-15T11:46:59.231Z,28.673738
2022-12-15T11:52:01.028Z,30.657184
2022-12-15T11:57:02.981Z,29.64413
2022-12-15T12:02:04.725Z,29.246688
2022-12-15T12:07:06.519Z,29.31577
2022-12-15T12:12:08.835Z,29.28661
2022-12-15T12:17:10.743Z,28.93414
2022-12-15T12:22:12.463Z,30.621888
2022-12-15T12:27:14.355Z,30.471374
2022-12-15T12:32:16.063Z,31.044746
2022-12-15T12:37:17.876Z,30.288606
2022-12-15T12:42:19.969Z,30.81565
2022-12-15T12:47:21.612Z,31.43585
2022-12-15T12:52:23.356Z,29.30957
2022-12-15T12:57:25.058Z,28.747652
2022-12-15T13:02:26.992Z,28.891136
2022-12-15T13:07:29.016Z,30.270734
2022-12-15T13:12:50.815Z,29.392792
2022-12-15T13:17:53.270Z,30.217554
2022-12-15T13:22:54.885Z,28.310222
2022-12-15T13:27:56.460Z,28.491634
2022-12-15T13:32:58.944Z,27.879874
2022-12-15T13:38:00.791Z,27.48706
2022-12-15T13:43:03.040Z,27.869724
2022-12-15T13:48:04.865Z,27.054462
2022-12-15T15:03:10.458Z,27.439594
2022-12-15T15:08:17.705Z,24.279734
2022-12-15T15:13:19.461Z,24.240694
2022-12-15T15:18:21.397Z,24.51917
2022-12-15T15:23:23.039Z,25.440356
2022-12-15T15:28:25.103Z,25.189834
2022-12-15T15:33:27.247Z,25.346536
2022-12-15T15:38:29.428Z,25.389986
2022-12-15T15:43:31.448Z,24.693512
2022-12-15T15:48:33.753Z,24.330702
2022-12-15T15:53:36.125Z,24.776096
2022-12-15T15:58:37.893Z,24.633928
2022-12-15T16:03:39.868Z,24.01202
2022-12-15T16:08:42.000Z,24.982626
2022-12-15T16:13:43.561Z,24.810238
2022-12-15T16:18:45.067Z,25.273938
2022-12-15T16:23:46.550Z,24.336184
2022-12-15T16:28:48.013Z,24.418484
2022-12-15T16:33:49.625Z,24.676306
2022-12-15T16:38:51.653Z,23.612558
2022-12-15T16:43:53.645Z,23.722078
2022-12-15T16:48:55.513Z,23.837718
2022-12-15T16:53:57.194Z,23.88798
2022-12-15T16:59:30.765Z,23.816482
2022-12-15T17:04:34.078Z,23.48442
2022-12-15T17:09:36.438Z,22.417402
2022-12-15T17:14:38.378Z,23.078092
2022-12-15T17:19:52.603Z,23.908782
2022-12-15T17:25:07.338Z,23.45013
2022-12-15T17:30:09.202Z,23.154842
2022-12-15T17:35:10.670Z,24.11751
2022-12-15T17:40:12.451Z,23.952626
2022-12-15T17:45:14.223Z,23.970334
2022-12-15T17:50:15.714Z,24.099408
2022-12-15T17:55:17.511Z,22.842782
2022-12-15T18:00:19.021Z,23.204276
2022-12-15T18:05:20.704Z,23.817608
2022-12-15T18:10:22.712Z,23.324584
2022-12-15T18:15:24.213Z,22.891388
2022-12-15T18:20:25.880Z,22.592138
2022-12-15T18:25:27.319Z,22.493894
2022-12-15T18:30:29.343Z,22.073454
2022-12-15T18:35:31.102Z,22.592572
2022-12-15T18:40:32.864Z,22.826064
2022-12-15T18:45:34.664Z,22.469876
2022-12-15T18:50:36.261Z,22.628776
2022-12-15T18:55:37.956Z,22.251392
2022-12-15T19:00:39.506Z,22.412748
2022-12-15T19:05:41.212Z,22.216328
2022-12-15T19:10:43.080Z,21.887252
2022-12-15T19:15:44.630Z,22.239478
2022-12-15T19:20:46.077Z,22.214116
2022-12-15T19:25:47.757Z,21.920606
2022-12-15T19:30:49.327Z,21.685988
2022-12-15T19:35:51.192Z,22.083224
2022-12-15T19:40:53.016Z,20.71982
2022-12-15T19:45:54.874Z,21.40199
2022-12-15T19:50:56.544Z,21.235152
2022-12-15T19:55:58.294Z,19.694014
2022-12-15T20:00:59.864Z,19.504488
2022-12-15T20:06:01.421Z,19.63116
2022-12-15T20:11:03.650Z,20.413256
2022-12-15T20:16:05.325Z,20.220378
2022-12-15T20:21:06.842Z,20.412374
2022-12-15T20:26:08.409Z,20.860292
2022-12-15T20:31:09.881Z,20.74107
2022-12-15T20:36:11.301Z,20.009154
2022-12-15T20:41:13.069Z,20.047732
2022-12-15T20:46:14.584Z,19.047166
2022-12-15T20:51:16.020Z,19.200122
2022-12-15T20:56:17.510Z,19.75889
2022-12-15T21:01:19.378Z,20.019046
2022-12-15T21:06:21.357Z,20.268048
2022-12-15T21:11:23.570Z,19.23121
2022-12-15T21:16:25.440Z,19.494772
2022-12-15T21:21:27.441Z,19.555428
2022-12-15T21:26:29.526Z,19.44755
2022-12-15T21:31:31.443Z,18.680896
2022-12-15T21:36:33.445Z,19.21646
2022-12-15T21:41:35.498Z,19.292192
2022-12-15T21:46:37.391Z,18.188782
2022-12-15T21:51:39.316Z,18.92983
2022-12-15T21:56:41.425Z,19.143008
2022-12-15T22:01:43.383Z,19.158898
2022-12-15T22:06:50.089Z,19.232608
2022-12-15T22:11:52.802Z,18.427118
2022-12-15T22:16:54.250Z,18.404606
2022-12-15T22:21:56.374Z,18.61735
2022-12-15T22:26:57.841Z,18.325604
2022-12-15T22:31:59.545Z,17.698256
2022-12-15T22:37:01.039Z,17.713888
2022-12-15T22:42:02.889Z,17.910728
2022-12-15T22:47:04.358Z,17.871892
2022-12-15T22:52:05.827Z,17.974804
2022-12-15T22:57:07.532Z,18.155238
2022-12-15T23:02:09.288Z,17.603106
2022-12-15T23:07:10.894Z,18.544522
2022-12-15T23:12:12.941Z,18.831844
2022-12-15T23:17:14.376Z,18.857884
2022-12-15T23:22:15.866Z,18.651328
2022-12-15T23:27:17.511Z,18.63191
2022-12-15T23:32:18.983Z,18.66255
2022-12-15T23:37:20.531Z,18.92983
2022-12-15T23:42:22.581Z,19.351776
2022-12-15T23:47:24.274Z,19.03152
2022-12-15T23:52:25.903Z,19.092
2022-12-15T23:57:27.562Z,19.25379
